Time;durP1;ratioP1;P1;durP2;ratioP2;P2;SDS_P1;SDS_P2;PMS_P1;PMS_P2;Temp;Humidity;BMP_temperature;BMP_pressure;BME280_temperature;BME280_humidity;BME280_pressure;Samples;Min_cycle;Max_cycle;Signal;HPM_P1;HPM_P2
2023/08/11 00:02:18;;;;;;;10.73;8.93;;;14.20;1.00;;;;;;5041232;28;21450;-76
2023/08/11 00:04:45;;;;;;;9.43;8.37;;;14.20;1.00;;;;;;5040264;28;20472;-76
2023/08/11 00:07:12;;;;;;;10.57;9.20;;;14.20;1.00;;;;;;5043812;28;20463;-77
2023/08/11 00:09:39;;;;;;;11.70;8.90;;;14.10;1.00;;;;;;5041971;28;20560;-78
2023/08/11 00:12:07;;;;;;;9.23;8.13;;;14.10;1.00;;;;;;5047114;28;20458;-76
2023/08/11 00:14:35;;;;;;;9.27;8.30;;;14.10;1.00;;;;;;5040283;28;21010;-78
2023/08/11 00:17:02;;;;;;;12.57;8.60;;;14.00;1.00;;;;;;5043003;28;20474;-77
2023/08/11 00:19:30;;;;;;;9.33;8.40;;;14.10;1.00;;;;;;5044643;28;20746;-77
2023/08/11 00:21:57;;;;;;;8.80;7.93;;;14.10;1.00;;;;;;5041091;28;20974;-76
2023/08/11 00:24:24;;;;;;;8.23;7.50;;;14.10;1.00;;;;;;5042224;28;20849;-77
2023/08/11 00:26:51;;;;;;;11.07;8.53;;;14.10;1.00;;;;;;5044881;28;20459;-76
2023/08/11 00:29:18;;;;;;;11.43;8.90;;;14.00;1.00;;;;;;5044098;28;20819;-76
2023/08/11 00:31:46;;;;;;;10.77;8.70;;;14.00;1.00;;;;;;5041764;28;20443;-77
2023/08/11 00:34:13;;;;;;;9.13;8.23;;;14.00;1.00;;;;;;5043599;28;20987;-76
2023/08/11 00:36:41;;;;;;;9.10;8.40;;;14.00;1.00;;;;;;5040727;28;20550;-77
2023/08/11 00:39:09;;;;;;;9.37;7.77;;;14.00;1.00;;;;;;5041611;28;20531;-77
2023/08/11 00:41:36;;;;;;;15.63;9.13;;;14.00;1.00;;;;;;5041871;28;20461;-77
2023/08/11 00:44:03;;;;;;;9.10;8.20;;;14.00;1.00;;;;;;5035089;28;20470;-76
2023/08/11 00:46:30;;;;;;;12.43;7.77;;;14.00;1.00;;;;;;5022631;28;20550;-77
2023/08/11 00:49:00;;;;;;;9.10;8.20;;;14.00;1.00;;;;;;5038530;28;20606;-78
2023/08/11 00:51:27;;;;;;;10.27;9.07;;;14.00;1.00;;;;;;5039685;28;20537;-78
2023/08/11 00:53:54;;;;;;;11.60;8.70;;;14.00;1.00;;;;;;5035345;28;21000;-76
2023/08/11 00:56:23;;;;;;;9.77;8.73;;;14.00;1.00;;;;;;5038682;28;20542;-77
2023/08/11 00:58:50;;;;;;;9.73;7.97;;;13.90;1.00;;;;;;5037438;28;20482;-76
2023/08/11 01:01:17;;;;;;;9.77;8.73;;;13.90;1.00;;;;;;5039037;28;20525;-77
2023/08/11 01:03:47;;;;;;;9.57;8.07;;;13.90;1.00;;;;;;5043850;22;20954;-73
2023/08/11 01:06:24;;;;;;;9.30;8.50;;;13.90;1.00;;;;;;5040385;28;21027;-69
2023/08/11 01:08:58;;;;;;;9.77;8.57;;;13.80;1.00;;;;;;5039270;28;20473;-74
2023/08/11 01:11:39;;;;;;;9.30;8.40;;;13.80;1.00;;;;;;5040085;28;20478;-74
2023/08/11 01:14:16;;;;;;;9.10;8.20;;;13.80;1.00;;;;;;5039571;28;20467;-75
2023/08/11 01:16:45;;;;;;;9.67;8.30;;;13.80;1.00;;;;;;5040541;28;20474;-75
2023/08/11 01:19:18;;;;;;;9.83;7.90;;;13.80;1.00;;;;;;5043145;28;20470;-73
2023/08/11 01:21:49;;;;;;;9.40;8.43;;;13.80;1.00;;;;;;5040470;28;20459;-74
2023/08/11 01:24:17;;;;;;;10.70;8.70;;;13.80;1.00;;;;;;5038632;28;20623;-73
2023/08/11 01:26:46;;;;;;;8.53;7.77;;;13.80;1.00;;;;;;5043468;28;20471;-73
2023/08/11 01:29:13;;;;;;;11.07;8.97;;;13.80;1.00;;;;;;5043336;28;20503;-74
2023/08/11 01:31:40;;;;;;;10.20;8.43;;;13.80;1.00;;;;;;5034922;28;20544;-76
2023/08/11 01:34:07;;;;;;;8.50;7.80;;;13.70;1.00;;;;;;5040180;28;20466;-75
2023/08/11 01:36:36;;;;;;;9.70;8.60;;;13.70;1.00;;;;;;5039890;28;20461;-73
2023/08/11 01:39:04;;;;;;;12.83;10.40;;;13.60;1.00;;;;;;5039798;28;20972;-73
2023/08/11 01:41:33;;;;;;;9.13;8.23;;;13.60;1.00;;;;;;5041327;28;20993;-75
2023/08/11 01:44:00;;;;;;;10.00;8.30;;;13.60;1.00;;;;;;5038661;28;20568;-74
2023/08/11 01:46:29;;;;;;;10.03;8.60;;;13.60;1.00;;;;;;5036647;28;20470;-74
2023/08/11 01:48:58;;;;;;;9.20;8.30;;;13.60;1.00;;;;;;5044295;28;20527;-74
2023/08/11 01:51:25;;;;;;;9.43;8.63;;;13.60;1.00;;;;;;5039786;28;20470;-73
2023/08/11 01:53:52;;;;;;;10.70;8.97;;;13.60;1.00;;;;;;5035102;28;22685;-73
2023/08/11 01:56:21;;;;;;;10.57;8.20;;;13.60;1.00;;;;;;5041471;28;20481;-74
2023/08/11 01:58:49;;;;;;;9.17;8.37;;;13.60;1.00;;;;;;5041445;28;20495;-75
2023/08/11 02:01:16;;;;;;;9.90;9.00;;;13.60;1.00;;;;;;5037849;28;20517;-73
2023/08/11 02:03:43;;;;;;;8.93;8.10;;;13.60;1.00;;;;;;5040174;28;20474;-73
2023/08/11 02:06:10;;;;;;;8.93;8.13;;;13.70;1.00;;;;;;5042428;28;20478;-72
2023/08/11 02:08:37;;;;;;;10.67;9.23;;;13.70;1.00;;;;;;5046012;28;20472;-73
2023/08/11 02:11:04;;;;;;;10.83;9.00;;;13.70;1.00;;;;;;5047856;28;20450;-74
2023/08/11 02:13:31;;;;;;;9.37;7.67;;;13.70;1.00;;;;;;5050334;28;20559;-74
2023/08/11 02:15:59;;;;;;;8.90;8.10;;;13.70;1.00;;;;;;5047117;28;20637;-72
2023/08/11 02:18:26;;;;;;;9.23;8.30;;;13.70;1.00;;;;;;5048249;28;20478;-74
2023/08/11 02:20:54;;;;;;;10.80;9.37;;;13.70;1.00;;;;;;5046247;28;20431;-74
2023/08/11 02:23:20;;;;;;;9.33;8.50;;;13.70;1.00;;;;;;5045522;28;21273;-74
2023/08/11 02:25:47;;;;;;;10.30;9.30;;;13.70;1.00;;;;;;5051194;28;20459;-75
2023/08/11 02:28:15;;;;;;;11.43;9.13;;;13.70;1.00;;;;;;5051449;28;20622;-74
2023/08/11 02:30:42;;;;;;;10.20;8.23;;;13.70;1.00;;;;;;5041365;28;20982;-76
2023/08/11 02:33:13;;;;;;;11.53;9.07;;;13.70;1.00;;;;;;5049659;28;20469;-73
2023/08/11 02:35:39;;;;;;;9.50;8.60;;;13.70;1.00;;;;;;5046004;28;20474;-73
2023/08/11 02:38:07;;;;;;;9.60;8.67;;;13.70;1.00;;;;;;5047202;28;20485;-76
2023/08/11 02:40:36;;;;;;;10.10;9.10;;;13.70;1.00;;;;;;5044962;28;20533;-73
2023/08/11 02:43:03;;;;;;;10.63;8.33;;;13.70;1.00;;;;;;5045267;28;20551;-74
2023/08/11 02:45:30;;;;;;;11.93;8.83;;;13.80;1.00;;;;;;5045644;28;20555;-75
2023/08/11 02:47:57;;;;;;;11.23;9.30;;;13.80;1.00;;;;;;5042064;28;21040;-72
2023/08/11 02:50:25;;;;;;;9.73;8.73;;;13.80;1.00;;;;;;5043498;28;21250;-72
2023/08/11 02:52:52;;;;;;;9.03;8.13;;;13.90;1.00;;;;;;5039677;28;20458;-72
2023/08/11 02:55:19;;;;;;;10.17;8.67;;;13.90;1.00;;;;;;5046285;28;20556;-73
2023/08/11 02:57:46;;;;;;;9.03;8.20;;;14.00;1.00;;;;;;5044419;28;21098;-72
2023/08/11 03:00:14;;;;;;;12.10;8.20;;;14.00;1.00;;;;;;5041409;28;20468;-72
2023/08/11 03:02:42;;;;;;;8.90;8.10;;;14.10;1.00;;;;;;5046577;28;20457;-71
2023/08/11 03:05:10;;;;;;;11.63;8.27;;;14.10;1.00;;;;;;5046238;28;20467;-72
2023/08/11 03:07:39;;;;;;;11.10;7.50;;;14.20;1.00;;;;;;5043438;28;20471;-71
2023/08/11 03:10:07;;;;;;;9.37;8.43;;;14.20;1.00;;;;;;5044869;28;20590;-71
2023/08/11 03:12:34;;;;;;;9.93;8.93;;;14.30;1.00;;;;;;5044913;28;20470;-71
2023/08/11 03:15:02;;;;;;;10.50;8.83;;;14.30;1.00;;;;;;5033897;28;20504;-72
2023/08/11 03:17:29;;;;;;;8.97;8.07;;;14.30;1.00;;;;;;5027608;28;20507;-72
2023/08/11 03:19:56;;;;;;;9.53;8.63;;;14.30;1.00;;;;;;5041212;28;20550;-72
2023/08/11 03:22:23;;;;;;;9.53;8.53;;;14.40;1.00;;;;;;5045343;28;20498;-72
2023/08/11 03:24:52;;;;;;;9.43;8.37;;;14.40;1.00;;;;;;5038585;28;20475;-72
2023/08/11 03:27:19;;;;;;;10.20;7.90;;;14.40;1.00;;;;;;5037790;28;20979;-73
2023/08/11 03:29:46;;;;;;;10.83;8.57;;;14.40;1.00;;;;;;5050912;28;20572;-71
2023/08/11 03:32:13;;;;;;;13.63;8.73;;;14.40;1.00;;;;;;5043747;28;20475;-73
2023/08/11 03:34:41;;;;;;;9.90;8.90;;;14.40;1.00;;;;;;5043357;28;20928;-73
2023/08/11 03:37:08;;;;;;;11.40;7.97;;;14.40;1.00;;;;;;5034680;28;20581;-72
2023/08/11 03:39:35;;;;;;;9.53;8.57;;;14.40;1.00;;;;;;5045131;28;20551;-73
2023/08/11 03:42:03;;;;;;;8.63;7.77;;;14.50;1.00;;;;;;5044042;28;20457;-72
2023/08/11 03:44:30;;;;;;;11.93;8.67;;;14.50;1.00;;;;;;5041867;28;20495;-72
2023/08/11 03:46:57;;;;;;;8.67;7.57;;;14.50;1.00;;;;;;5044346;28;20462;-72
2023/08/11 03:49:24;;;;;;;8.73;7.93;;;14.50;1.00;;;;;;5045783;28;20512;-72
2023/08/11 03:51:51;;;;;;;11.37;8.50;;;14.50;1.00;;;;;;5042328;28;21351;-73
2023/08/11 03:54:18;;;;;;;13.30;8.90;;;14.50;1.00;;;;;;5042502;28;20997;-72
2023/08/11 03:56:44;;;;;;;11.27;8.80;;;14.60;1.00;;;;;;5045041;28;20558;-72
2023/08/11 03:59:13;;;;;;;8.30;7.50;;;14.70;1.00;;;;;;5046546;28;20937;-75
2023/08/11 04:01:40;;;;;;;9.90;8.23;;;14.70;1.00;;;;;;5043584;28;20483;-72
2023/08/11 04:04:07;;;;;;;14.47;8.50;;;14.70;1.00;;;;;;5036857;28;20469;-71
2023/08/11 04:06:34;;;;;;;12.13;8.30;;;14.70;1.00;;;;;;5038005;28;20993;-72
2023/08/11 04:09:01;;;;;;;13.40;8.80;;;14.70;1.00;;;;;;5039543;28;20558;-72
2023/08/11 04:11:29;;;;;;;9.93;8.17;;;14.70;1.00;;;;;;5045102;28;20499;-71
2023/08/11 04:13:56;;;;;;;11.80;7.40;;;14.80;1.00;;;;;;5045444;28;20486;-73
2023/08/11 04:16:25;;;;;;;8.63;7.63;;;14.80;1.00;;;;;;5049204;28;20625;-72
2023/08/11 04:18:51;;;;;;;9.17;8.27;;;14.80;1.00;;;;;;5045210;28;21026;-72
2023/08/11 04:21:18;;;;;;;8.63;7.63;;;14.80;1.00;;;;;;5046865;28;20458;-75
2023/08/11 04:23:45;;;;;;;8.90;8.03;;;14.90;1.00;;;;;;5043243;28;20893;-73
2023/08/11 04:26:12;;;;;;;10.70;8.27;;;14.90;1.00;;;;;;5043446;28;20573;-72
2023/08/11 04:28:43;;;;;;;9.50;8.50;;;14.90;1.00;;;;;;5043635;28;20455;-73
2023/08/11 04:31:10;;;;;;;10.50;8.43;;;15.00;1.00;;;;;;5044343;28;20510;-71
2023/08/11 04:33:38;;;;;;;8.20;7.40;;;15.00;1.00;;;;;;5045239;28;20463;-72
2023/08/11 04:36:05;;;;;;;11.43;8.27;;;15.00;1.00;;;;;;5046496;28;20471;-73
2023/08/11 04:38:32;;;;;;;11.30;9.20;;;15.10;1.00;;;;;;5045204;28;20468;-73
2023/08/11 04:40:59;;;;;;;8.80;7.90;;;15.10;1.00;;;;;;5044216;28;20502;-72
2023/08/11 04:43:26;;;;;;;10.43;8.63;;;15.10;1.00;;;;;;5042391;28;21217;-73
2023/08/11 04:45:54;;;;;;;10.90;8.17;;;15.10;1.00;;;;;;5037075;28;20545;-71
2023/08/11 04:48:22;;;;;;;17.80;9.63;;;15.00;1.00;;;;;;5043112;28;20455;-73
2023/08/11 04:50:54;;;;;;;18.00;10.80;;;15.00;1.00;;;;;;5043288;28;20606;-73
2023/08/11 04:53:21;;;;;;;11.93;9.03;;;15.00;1.00;;;;;;5042951;28;20912;-72
2023/08/11 04:55:49;;;;;;;11.80;9.20;;;14.90;1.00;;;;;;5043397;28;20471;-73
2023/08/11 04:58:15;;;;;;;9.10;8.40;;;14.90;1.00;;;;;;5043798;28;20455;-73
2023/08/11 05:00:43;;;;;;;9.77;8.83;;;15.00;1.00;;;;;;5039629;28;20475;-72
2023/08/11 05:03:10;;;;;;;10.53;9.27;;;15.20;1.00;;;;;;5041739;28;20490;-72
2023/08/11 05:05:37;;;;;;;13.63;9.57;;;15.30;1.00;;;;;;5044409;28;21019;-73
2023/08/11 05:08:06;;;;;;;9.50;8.47;;;15.40;1.00;;;;;;5043397;28;20519;-73
2023/08/11 05:10:33;;;;;;;13.60;9.60;;;15.50;1.00;;;;;;5045253;28;20963;-72
2023/08/11 05:13:00;;;;;;;11.70;10.00;;;15.50;1.00;;;;;;5043545;28;20915;-72
2023/08/11 05:15:27;;;;;;;9.73;8.73;;;15.60;1.00;;;;;;5041377;28;20559;-72
2023/08/11 05:17:54;;;;;;;11.07;8.70;;;15.70;1.00;;;;;;5044397;28;20543;-72
2023/08/11 05:20:21;;;;;;;9.67;8.80;;;15.60;1.00;;;;;;5039278;28;20463;-72
2023/08/11 05:22:48;;;;;;;17.67;10.10;;;15.60;1.00;;;;;;5035223;28;20470;-72
2023/08/11 05:25:17;;;;;;;11.87;8.73;;;15.60;1.00;;;;;;5039221;28;20507;-72
2023/08/11 05:27:43;;;;;;;9.73;8.77;;;15.70;1.00;;;;;;5037546;28;21336;-73
2023/08/11 05:30:11;;;;;;;9.80;8.80;;;15.80;1.00;;;;;;5035351;28;20547;-74
2023/08/11 05:32:38;;;;;;;9.30;8.37;;;15.90;1.00;;;;;;5035288;28;20482;-73
2023/08/11 05:35:05;;;;;;;10.03;8.83;;;16.00;1.00;;;;;;5039382;28;20563;-73
2023/08/11 05:37:33;;;;;;;9.17;8.40;;;16.00;1.00;;;;;;5040190;28;20460;-73
2023/08/11 05:40:00;;;;;;;9.60;8.60;;;16.20;1.00;;;;;;5039424;28;20539;-72
2023/08/11 05:42:28;;;;;;;10.67;8.47;;;16.40;1.00;;;;;;5042253;28;20465;-73
2023/08/11 05:44:55;;;;;;;11.93;7.90;;;16.50;1.00;;;;;;5039722;28;20563;-72
2023/08/11 05:47:22;;;;;;;9.40;8.60;;;16.70;1.00;;;;;;5040916;28;20454;-73
2023/08/11 05:49:50;;;;;;;8.77;7.43;;;16.90;1.00;;;;;;5041367;28;20983;-73
2023/08/11 05:52:17;;;;;;;8.53;7.73;;;17.20;1.00;;;;;;5045455;28;20480;-73
2023/08/11 05:54:44;;;;;;;9.37;8.20;;;17.30;1.00;;;;;;5041102;28;20469;-73
2023/08/11 05:57:11;;;;;;;9.67;8.70;;;17.40;1.00;;;;;;5040284;28;20692;-73
2023/08/11 05:59:39;;;;;;;9.37;8.40;;;17.60;1.00;;;;;;5039982;28;20479;-73
2023/08/11 06:02:06;;;;;;;8.30;7.60;;;17.70;1.00;;;;;;5042823;28;20448;-71
2023/08/11 06:04:33;;;;;;;10.07;8.70;;;17.70;1.00;;;;;;5037526;28;20496;-72
2023/08/11 06:07:00;;;;;;;10.40;7.30;;;17.80;1.00;;;;;;5048353;28;20448;-75
2023/08/11 06:09:27;;;;;;;10.50;9.27;;;17.90;1.00;;;;;;5043051;28;20441;-72
2023/08/11 06:11:54;;;;;;;9.17;8.10;;;17.80;1.00;;;;;;5046661;28;20452;-72
2023/08/11 06:14:21;;;;;;;9.07;8.27;;;17.80;1.00;;;;;;5043610;28;21085;-74
2023/08/11 06:16:49;;;;;;;8.87;8.07;;;17.70;1.00;;;;;;5044399;28;20518;-71
2023/08/11 06:19:17;;;;;;;10.93;7.97;;;17.80;1.00;;;;;;5043565;28;20464;-74
2023/08/11 06:21:45;;;;;;;7.60;6.90;;;18.00;1.00;;;;;;5045798;28;20572;-74
2023/08/11 06:24:12;;;;;;;9.10;8.20;;;18.10;1.00;;;;;;5044877;28;20477;-73
2023/08/11 06:26:39;;;;;;;11.43;7.80;;;18.30;1.00;;;;;;5045807;28;20474;-74
2023/08/11 06:29:06;;;;;;;12.30;7.90;;;18.40;1.00;;;;;;5042379;28;20494;-75
2023/08/11 06:31:33;;;;;;;8.00;7.07;;;18.40;1.00;;;;;;5046362;28;20540;-74
2023/08/11 06:34:02;;;;;;;9.47;7.20;;;18.50;1.00;;;;;;5048982;28;21081;-74
2023/08/11 06:36:29;;;;;;;9.60;7.80;;;18.60;1.00;;;;;;5045005;28;20457;-74
2023/08/11 06:38:56;;;;;;;8.87;8.07;;;18.60;1.00;;;;;;5041897;28;20471;-71
2023/08/11 06:41:23;;;;;;;7.23;6.60;;;18.70;1.00;;;;;;5044515;28;20505;-72
2023/08/11 06:43:50;;;;;;;9.23;6.73;;;18.90;1.00;;;;;;5044967;28;20520;-74
2023/08/11 06:46:17;;;;;;;8.03;7.10;;;19.10;1.00;;;;;;5046334;28;20463;-72
2023/08/11 06:48:44;;;;;;;7.43;6.73;;;19.30;1.00;;;;;;5046357;28;20556;-72
2023/08/11 06:51:12;;;;;;;9.60;7.90;;;19.40;1.00;;;;;;5043826;28;20480;-74
2023/08/11 06:53:39;;;;;;;7.30;5.97;;;19.70;1.00;;;;;;5043082;28;20438;-74
2023/08/11 06:56:06;;;;;;;7.43;6.70;;;19.90;1.00;;;;;;5044625;28;20543;-75
2023/08/11 06:58:33;;;;;;;13.73;6.53;;;20.10;1.00;;;;;;5043754;28;21005;-71
2023/08/11 07:01:00;;;;;;;8.60;6.37;;;20.20;1.00;;;;;;5043150;28;20506;-78
2023/08/11 07:03:27;;;;;;;10.13;6.50;;;20.40;1.00;;;;;;5045193;28;20972;-78
2023/08/11 07:05:56;;;;;;;8.70;6.57;;;20.50;1.00;;;;;;5047547;28;20551;-78
2023/08/11 07:08:25;;;;;;;7.67;5.47;;;20.50;1.00;;;;;;5042729;28;21244;-75
2023/08/11 07:10:52;;;;;;;10.40;6.50;;;20.50;1.00;;;;;;5037141;28;20469;-78
2023/08/11 07:13:19;;;;;;;7.90;6.10;;;20.50;1.00;;;;;;5056676;28;20563;-77
2023/08/11 07:15:46;;;;;;;9.50;6.40;;;20.50;1.00;;;;;;5042941;28;20469;-76
2023/08/11 07:18:15;;;;;;;13.50;7.50;;;20.60;1.00;;;;;;5044121;28;20534;-78
2023/08/11 07:20:43;;;;;;;12.00;6.40;;;20.70;1.00;;;;;;5047084;28;20464;-78
2023/08/11 07:23:10;;;;;;;8.30;5.63;;;20.90;1.00;;;;;;5040886;28;20476;-74
2023/08/11 07:25:39;;;;;;;7.23;6.17;;;21.10;1.00;;;;;;5053484;28;21026;-72
2023/08/11 07:28:06;;;;;;;6.03;5.50;;;21.10;1.00;;;;;;5043851;28;21054;-72
2023/08/11 07:30:33;;;;;;;10.43;7.17;;;21.20;1.00;;;;;;5034186;28;20456;-74
2023/08/11 07:33:00;;;;;;;9.53;6.23;;;21.30;1.00;;;;;;5040936;28;20986;-72
2023/08/11 07:35:27;;;;;;;15.13;7.53;;;21.50;1.00;;;;;;5034207;28;20467;-72
2023/08/11 07:37:54;;;;;;;11.90;6.57;;;21.60;1.00;;;;;;5045033;28;20476;-72
2023/08/11 07:40:21;;;;;;;8.77;7.00;;;21.80;1.00;;;;;;5026071;28;21379;-73
2023/08/11 07:42:50;;;;;;;9.70;7.13;;;21.70;1.00;;;;;;5041459;28;20474;-73
2023/08/11 07:45:17;;;;;;;9.43;7.00;;;21.80;1.00;;;;;;5008141;28;20454;-74
2023/08/11 07:47:44;;;;;;;9.10;5.70;;;22.00;1.00;;;;;;5030062;28;21453;-72
2023/08/11 07:50:11;;;;;;;9.70;6.20;;;22.00;1.00;;;;;;5043344;28;21005;-73
2023/08/11 07:52:39;;;;;;;6.13;5.10;;;22.10;1.00;;;;;;5044839;28;20470;-73
2023/08/11 07:55:07;;;;;;;10.30;5.17;;;22.40;1.00;;;;;;5028361;28;20517;-74
2023/08/11 07:57:34;;;;;;;7.23;4.77;;;22.40;1.00;;;;;;5046425;28;20559;-73
2023/08/11 08:00:04;;;;;;;5.13;4.60;;;22.40;1.00;;;;;;5046443;28;20906;-73
2023/08/11 08:02:31;;;;;;;5.27;4.23;;;22.40;1.00;;;;;;5030758;28;20544;-73
2023/08/11 08:04:58;;;;;;;6.20;5.60;;;22.50;1.00;;;;;;5024097;28;20477;-73
2023/08/11 08:07:25;;;;;;;12.90;5.37;;;22.60;1.00;;;;;;5021466;28;20531;-73
2023/08/11 08:09:52;;;;;;;8.17;5.40;;;22.70;1.00;;;;;;5041932;28;20972;-71
2023/08/11 08:12:19;;;;;;;7.03;4.30;;;22.80;1.00;;;;;;5043457;28;20567;-73
2023/08/11 08:14:46;;;;;;;7.53;4.67;;;22.80;1.00;;;;;;5043698;28;20535;-73
2023/08/11 08:17:14;;;;;;;11.43;4.90;;;22.90;1.00;;;;;;5041912;28;20934;-74
2023/08/11 08:19:41;;;;;;;5.60;4.90;;;23.20;1.00;;;;;;5044402;28;21003;-73
2023/08/11 08:22:08;;;;;;;6.77;4.40;;;23.10;1.00;;;;;;5042787;28;20480;-72
2023/08/11 08:24:35;;;;;;;4.73;3.60;;;23.00;1.00;;;;;;5047362;28;20440;-73
2023/08/11 08:27:02;;;;;;;6.47;4.27;;;22.80;1.00;;;;;;5045239;28;20495;-74
2023/08/11 08:29:29;;;;;;;8.37;4.10;;;22.70;1.00;;;;;;5043685;28;20547;-74
2023/08/11 08:31:56;;;;;;;3.50;3.20;;;22.70;1.00;;;;;;5043548;28;20616;-72
2023/08/11 08:34:25;;;;;;;4.03;3.43;;;22.70;1.00;;;;;;5045167;28;20464;-73
2023/08/11 08:36:52;;;;;;;4.43;3.93;;;22.60;1.00;;;;;;5042296;28;20491;-72
2023/08/11 08:39:19;;;;;;;7.60;6.60;;;22.60;1.00;;;;;;5041099;28;20469;-73
2023/08/11 08:41:47;;;;;;;11.67;3.67;;;22.60;1.00;;;;;;5044541;28;20473;-73
2023/08/11 08:44:14;;;;;;;9.50;3.40;;;22.60;1.00;;;;;;5044766;28;20562;-72
2023/08/11 08:46:42;;;;;;;5.53;3.53;;;22.70;1.00;;;;;;5045596;28;20465;-72
2023/08/11 08:49:16;;;;;;;4.40;2.53;;;22.70;1.00;;;;;;5045513;28;20471;-74
2023/08/11 08:51:45;;;;;;;6.50;2.70;;;22.70;1.00;;;;;;5047755;28;20475;-76
2023/08/11 08:54:12;;;;;;;4.57;2.87;;;22.70;1.00;;;;;;5047870;28;20469;-77
2023/08/11 08:56:39;;;;;;;5.70;3.23;;;22.80;1.00;;;;;;5042502;28;20928;-77
2023/08/11 08:59:07;;;;;;;7.37;6.03;;;22.90;1.00;;;;;;5041787;28;20516;-76
2023/08/11 09:01:36;;;;;;;12.90;3.37;;;23.10;1.00;;;;;;5045305;28;20915;-73
2023/08/11 09:04:03;;;;;;;3.50;2.57;;;23.20;1.00;;;;;;5040271;28;20629;-73
2023/08/11 09:06:30;;;;;;;4.13;3.50;;;23.30;1.00;;;;;;5043763;28;20555;-74
2023/08/11 09:08:59;;;;;;;5.13;3.20;;;23.40;1.00;;;;;;5040453;28;21035;-72
2023/08/11 09:11:27;;;;;;;3.83;2.23;;;23.50;1.00;;;;;;5044531;28;20465;-72
2023/08/11 09:13:54;;;;;;;8.23;3.50;;;23.70;1.00;;;;;;5042252;28;20563;-71
2023/08/11 09:16:23;;;;;;;7.83;4.03;;;23.70;1.00;;;;;;5042230;28;20549;-71
2023/08/11 09:18:50;;;;;;;5.77;5.20;;;23.70;1.00;;;;;;5043424;28;20488;-72
2023/08/11 09:21:17;;;;;;;3.30;2.50;;;23.80;1.00;;;;;;5045610;28;20531;-73
2023/08/11 09:23:44;;;;;;;3.73;2.40;;;24.00;1.00;;;;;;5045896;28;20979;-73
2023/08/11 09:26:12;;;;;;;2.60;1.90;;;24.10;1.00;;;;;;5047504;28;20453;-74
2023/08/11 09:28:40;;;;;;;3.57;2.50;;;24.20;1.00;;;;;;5044773;28;20797;-72
2023/08/11 09:31:08;;;;;;;5.47;2.40;;;24.40;1.00;;;;;;5040459;28;20995;-71
2023/08/11 09:33:35;;;;;;;2.60;1.73;;;24.80;1.00;;;;;;5046095;28;20518;-73
2023/08/11 09:36:02;;;;;;;5.23;2.30;;;25.30;1.00;;;;;;5047074;28;21638;-73
2023/08/11 09:38:29;;;;;;;3.50;2.20;;;26.00;1.00;;;;;;5042385;28;20464;-74
2023/08/11 09:41:01;;;;;;;3.60;1.90;;;27.10;1.00;;;;;;5047778;28;20500;-71
2023/08/11 09:43:30;;;;;;;3.30;2.00;;;28.60;1.00;;;;;;5043540;28;20543;-73
2023/08/11 09:45:59;;;;;;;2.60;2.20;;;29.50;1.00;;;;;;5045628;28;21787;-71
2023/08/11 09:48:27;;;;;;;3.50;2.37;;;30.10;1.00;;;;;;5045889;28;21636;-73
2023/08/11 09:50:57;;;;;;;3.07;1.50;;;29.70;1.00;;;;;;5048184;28;20475;-75
2023/08/11 09:53:25;;;;;;;2.20;1.60;;;29.10;1.00;;;;;;5043232;28;20454;-72
2023/08/11 09:55:56;;;;;;;2.90;1.73;;;28.70;1.00;;;;;;5044376;28;20447;-73
2023/08/11 09:58:25;;;;;;;3.30;1.60;;;28.60;1.00;;;;;;5044842;28;20473;-73
2023/08/11 10:00:55;;;;;;;2.70;1.83;;;28.40;1.00;;;;;;5043212;28;20439;-74
2023/08/11 10:03:28;;;;;;;3.67;2.20;;;28.30;1.00;;;;;;5042601;28;20493;-72
2023/08/11 10:05:59;;;;;;;2.43;1.77;;;28.30;1.00;;;;;;5040529;28;20467;-73
2023/08/11 10:08:30;;;;;;;3.17;1.70;;;28.20;1.00;;;;;;5044400;28;20478;-73
2023/08/11 10:10:58;;;;;;;5.73;2.27;;;29.20;1.00;;;;;;5045610;28;20557;-73
2023/08/11 10:13:28;;;;;;;1.43;1.33;;;30.60;1.00;;;;;;5047422;28;21038;-74
2023/08/11 10:15:57;;;;;;;2.60;1.87;;;31.60;1.00;;;;;;5045245;28;20452;-76
2023/08/11 10:18:25;;;;;;;3.40;2.20;;;31.90;1.00;;;;;;5045263;28;20503;-74
2023/08/11 10:20:53;;;;;;;2.27;1.30;;;32.10;1.00;;;;;;5046003;28;20490;-75
2023/08/11 10:23:20;;;;;;;2.67;1.70;;;32.40;1.00;;;;;;5044408;28;20478;-74
2023/08/11 10:25:47;;;;;;;6.23;2.47;;;32.60;1.00;;;;;;5044837;28;20568;-74
2023/08/11 10:28:15;;;;;;;2.83;1.90;;;33.40;1.00;;;;;;5044629;28;20510;-75
2023/08/11 10:30:42;;;;;;;2.20;1.40;;;34.50;1.00;;;;;;5042463;28;20538;-74
2023/08/11 10:33:11;;;;;;;5.30;2.70;;;35.10;1.00;;;;;;5043203;28;20468;-75
2023/08/11 10:35:51;;;;;;;1.80;1.53;;;34.30;1.00;;;;;;5044883;28;20464;-74
2023/08/11 10:38:26;;;;;;;1.50;1.40;;;33.60;1.00;;;;;;5045643;28;20974;-73
2023/08/11 10:41:00;;;;;;;1.90;1.20;;;32.80;1.00;;;;;;5048155;28;20965;-73
2023/08/11 10:43:32;;;;;;;2.17;1.97;;;32.00;1.00;;;;;;5045870;28;20878;-75
2023/08/11 10:46:16;;;;;;;1.97;1.60;;;32.90;1.00;;;;;;5044231;28;20465;-73
2023/08/11 10:48:45;;;;;;;4.40;2.10;;;34.60;1.00;;;;;;5044876;28;20623;-75
2023/08/11 10:51:30;;;;;;;2.80;1.50;;;35.80;1.00;;;;;;5045022;28;20472;-74
2023/08/11 10:54:01;;;;;;;1.83;1.50;;;36.70;1.00;;;;;;5040221;28;20848;-74
2023/08/11 10:56:30;;;;;;;3.17;1.50;;;37.20;1.00;;;;;;5045519;28;20456;-75
2023/08/11 10:59:13;;;;;;;3.43;2.20;;;37.20;1.00;;;;;;5045961;28;20448;-74
2023/08/11 11:01:43;;;;;;;3.30;2.30;;;37.40;1.00;;;;;;5035654;28;20555;-74
2023/08/11 11:04:13;;;;;;;3.00;1.70;;;37.80;1.00;;;;;;5039242;28;21012;-75
2023/08/11 11:06:45;;;;;;;4.47;1.63;;;37.00;1.00;;;;;;5026320;28;20461;-75
2023/08/11 11:09:13;;;;;;;3.13;1.57;;;37.10;1.00;;;;;;5048400;28;20473;-74
2023/08/11 11:11:40;;;;;;;2.27;1.77;;;37.90;1.00;;;;;;5045905;28;20555;-74
2023/08/11 11:14:08;;;;;;;2.67;1.70;;;38.10;1.00;;;;;;5044112;28;20577;-73
2023/08/11 11:16:36;;;;;;;2.30;1.40;;;38.40;1.00;;;;;;5037379;28;20460;-72
2023/08/11 11:19:04;;;;;;;2.30;1.37;;;38.10;1.00;;;;;;5042596;28;20468;-71
2023/08/11 11:21:34;;;;;;;1.90;1.70;;;38.20;1.00;;;;;;5044379;28;20455;-74
2023/08/11 11:24:01;;;;;;;2.97;1.70;;;38.60;1.00;;;;;;5046670;28;20460;-72
2023/08/11 11:26:29;;;;;;;2.17;1.23;;;38.70;1.00;;;;;;5043998;28;20552;-71
2023/08/11 11:28:58;;;;;;;3.23;1.90;;;38.00;1.00;;;;;;5046789;28;20472;-73
2023/08/11 11:31:27;;;;;;;1.53;1.40;;;37.80;1.00;;;;;;5039920;28;21050;-73
2023/08/11 11:33:55;;;;;;;2.20;1.70;;;38.30;1.00;;;;;;5046386;28;20964;-72
2023/08/11 11:36:25;;;;;;;2.57;1.70;;;39.10;1.00;;;;;;5048437;28;20464;-74
2023/08/11 11:38:58;;;;;;;1.50;1.33;;;39.70;1.00;;;;;;5046946;28;20484;-74
2023/08/11 11:41:28;;;;;;;2.47;1.50;;;39.80;1.00;;;;;;5039984;28;20591;-75
2023/08/11 11:43:56;;;;;;;3.97;1.80;;;39.10;1.00;;;;;;5052121;28;20490;-74
2023/08/11 11:46:28;;;;;;;2.30;1.93;;;39.20;1.00;;;;;;5046307;28;20889;-74
2023/08/11 11:48:56;;;;;;;3.83;2.80;;;39.70;1.00;;;;;;5030896;28;20473;-72
2023/08/11 11:51:26;;;;;;;2.00;1.30;;;39.80;1.00;;;;;;5047577;28;20476;-72
2023/08/11 11:53:59;;;;;;;3.13;1.50;;;39.10;1.00;;;;;;5048178;28;20449;-73
2023/08/11 11:56:29;;;;;;;1.90;1.43;;;39.20;1.00;;;;;;5050634;28;20472;-74
2023/08/11 11:58:56;;;;;;;4.20;1.43;;;39.60;1.00;;;;;;5048353;28;21393;-71
2023/08/11 12:01:26;;;;;;;2.47;1.40;;;40.10;1.00;;;;;;5050321;28;20568;-72
2023/08/11 12:03:58;;;;;;;2.63;1.43;;;40.30;1.00;;;;;;5045947;28;20484;-72
2023/08/11 12:06:27;;;;;;;3.20;1.80;;;40.40;1.00;;;;;;5047839;28;20522;-72
2023/08/11 12:09:00;;;;;;;1.50;1.40;;;40.50;1.00;;;;;;5045505;28;20558;-72
2023/08/11 12:11:30;;;;;;;2.30;1.57;;;40.50;1.00;;;;;;5046151;28;20911;-72
2023/08/11 12:13:59;;;;;;;5.03;4.50;;;40.30;1.00;;;;;;5044452;28;20464;-73
2023/08/11 12:16:28;;;;;;;2.10;1.90;;;40.30;1.00;;;;;;5045563;28;20962;-73
2023/08/11 12:18:59;;;;;;;3.33;2.27;;;40.70;1.00;;;;;;5047793;28;20558;-74
2023/08/11 12:21:27;;;;;;;1.83;1.40;;;41.40;1.00;;;;;;5045853;28;20479;-72
2023/08/11 12:23:54;;;;;;;2.00;1.73;;;41.80;1.00;;;;;;5047520;28;20542;-73
2023/08/11 12:26:21;;;;;;;2.27;1.57;;;41.90;1.00;;;;;;5044376;28;20507;-72
2023/08/11 12:28:50;;;;;;;2.70;2.00;;;41.30;1.00;;;;;;5045498;28;20460;-74
2023/08/11 12:31:17;;;;;;;2.03;1.57;;;41.30;1.00;;;;;;5045039;28;20495;-73
2023/08/11 12:33:44;;;;;;;70.87;24.93;;;41.20;1.00;;;;;;5047974;28;20460;-73
2023/08/11 12:36:11;;;;;;;6.10;2.10;;;41.40;1.00;;;;;;5046946;28;20525;-73
2023/08/11 12:38:38;;;;;;;2.10;1.90;;;41.60;1.00;;;;;;5045884;28;20560;-72
2023/08/11 12:41:05;;;;;;;6.60;2.57;;;41.70;1.00;;;;;;5046579;28;20480;-74
2023/08/11 12:43:32;;;;;;;1.97;1.40;;;41.90;1.00;;;;;;5047569;28;20468;-72
2023/08/11 12:46:00;;;;;;;2.87;2.27;;;42.20;1.00;;;;;;5047968;28;21262;-73
2023/08/11 12:48:27;;;;;;;5.53;2.30;;;41.90;1.00;;;;;;5047020;28;20448;-74
2023/08/11 12:50:54;;;;;;;6.07;3.40;;;42.00;1.00;;;;;;5045477;28;20468;-74
2023/08/11 12:53:21;;;;;;;2.03;1.47;;;41.90;1.00;;;;;;5044722;28;20964;-73
2023/08/11 12:55:48;;;;;;;9.57;8.97;;;41.50;1.00;;;;;;5045417;28;20470;-72
2023/08/11 12:58:15;;;;;;;2.20;1.40;;;41.50;1.00;;;;;;5046461;28;20460;-72